Time;durP1;ratioP1;P1;durP2;ratioP2;P2;SDS_P1;SDS_P2;PMS_P1;PMS_P2;Temp;Humidity;BMP_temperature;BMP_pressure;BME280_temperature;BME280_humidity;BME280_pressure;Samples;Min_cycle;Max_cycle;Signal;HPM_P1;HPM_P2
2022/08/01 00:01:54;;;;;;;6.07;3.80;;;;;;;20.04;74.10;94623.13;6302516;22;20175;-81
2022/08/01 00:04:21;;;;;;;5.47;3.80;;;;;;;20.01;74.05;94625.50;6302578;22;20182;-81
2022/08/01 00:06:48;;;;;;;4.53;3.60;;;;;;;19.97;73.84;94620.00;6304182;22;20168;-83
2022/08/01 00:09:15;;;;;;;4.85;3.63;;;;;;;19.89;74.57;94612.69;6304711;22;20203;-83
2022/08/01 00:11:42;;;;;;;5.32;3.70;;;;;;;19.87;74.39;94620.09;6304332;22;20168;-85
2022/08/01 00:14:10;;;;;;;4.28;3.42;;;;;;;19.85;74.32;94618.81;6304275;22;20623;-84
2022/08/01 00:16:37;;;;;;;5.03;3.50;;;;;;;19.76;74.58;94624.66;6303959;22;20168;-84
2022/08/01 00:19:05;;;;;;;4.13;3.72;;;;;;;19.62;75.08;94617.66;6303925;22;20175;-84
2022/08/01 00:21:32;;;;;;;4.00;3.60;;;;;;;19.66;75.15;94616.81;6303919;22;20164;-86
2022/08/01 00:23:59;;;;;;;4.68;3.90;;;;;;;19.74;75.16;94618.06;6304675;22;20175;-84
2022/08/01 00:26:26;;;;;;;4.40;3.60;;;;;;;20.01;75.74;94636.06;6304478;22;20202;-86
2022/08/01 00:28:53;;;;;;;4.47;4.03;;;;;;;20.01;76.66;94615.75;6304212;22;20164;-85
2022/08/01 00:31:20;;;;;;;5.82;5.10;;;;;;;20.10;77.59;94631.78;6302998;22;20168;-85
2022/08/01 00:33:47;;;;;;;5.60;5.10;;;;;;;20.00;78.17;94623.97;6302795;22;20631;-86
2022/08/01 00:36:15;;;;;;;5.55;5.05;;;;;;;19.99;78.79;94632.94;6301540;22;20164;-86
2022/08/01 00:38:42;;;;;;;6.45;5.82;;;;;;;19.89;79.99;94631.16;6304107;22;20179;-85
2022/08/01 00:41:09;;;;;;;5.95;5.45;;;;;;;19.77;80.14;94638.63;6303970;22;20514;-85
2022/08/01 00:43:36;;;;;;;6.72;5.85;;;;;;;19.63;81.32;94632.41;6303117;22;20282;-86
2022/08/01 00:46:03;;;;;;;6.75;6.13;;;;;;;19.58;81.35;94643.00;6303728;22;20590;-86
2022/08/01 00:48:30;;;;;;;6.65;5.70;;;;;;;19.46;82.25;94629.34;6304072;22;20164;-87
2022/08/01 00:50:57;;;;;;;8.40;5.78;;;;;;;19.36;83.10;94637.31;6303357;22;20512;-87
2022/08/01 00:53:26;;;;;;;6.47;5.88;;;;;;;19.13;83.53;94609.75;6303651;22;20635;-87
2022/08/01 00:55:54;;;;;;;7.00;5.65;;;;;;;19.22;84.05;94624.72;6303566;22;20253;-87
2022/08/01 00:58:21;;;;;;;7.63;5.88;;;;;;;19.07;84.50;94602.94;6302222;22;20565;-85
2022/08/01 01:00:48;;;;;;;6.20;5.60;;;;;;;19.00;83.70;94623.50;6301821;22;20163;-83
2022/08/01 01:03:15;;;;;;;7.15;6.18;;;;;;;18.63;85.92;94597.59;6301934;22;20171;-83
2022/08/01 01:05:49;;;;;;;9.03;5.83;;;;;;;18.76;85.99;94604.91;6303475;22;20188;-84
2022/08/01 01:08:21;;;;;;;6.50;5.72;;;;;;;18.93;85.75;94596.69;6303211;22;20529;-82
2022/08/01 01:10:55;;;;;;;10.38;5.38;;;;;;;19.02;85.19;94593.19;6304310;22;20250;-82
2022/08/01 01:13:30;;;;;;;11.00;6.07;;;;;;;18.97;83.93;94606.41;6303524;22;20230;-82
2022/08/01 01:16:05;;;;;;;18.30;10.60;;;;;;;18.71;84.29;94604.94;6303673;22;20155;-82
2022/08/01 01:18:36;;;;;;;21.50;11.20;;;;;;;18.49;84.28;94596.59;6302982;22;20166;-83
2022/08/01 01:21:15;;;;;;;12.20;8.03;;;;;;;18.38;84.57;94595.81;6302876;22;20175;-82
2022/08/01 01:24:00;;;;;;;12.70;7.40;;;;;;;18.18;84.29;94585.34;6304095;22;20156;-81
2022/08/01 01:26:39;;;;;;;9.23;6.00;;;;;;;18.05;84.04;94585.88;6304157;22;20233;-82
2022/08/01 01:29:17;;;;;;;12.27;5.60;;;;;;;18.12;84.34;94589.78;6304274;22;20152;-83
2022/08/01 01:31:51;;;;;;;10.23;5.80;;;;;;;18.18;84.14;94584.53;6303875;22;20156;-83
2022/08/01 01:34:21;;;;;;;11.97;5.53;;;;;;;18.37;83.18;94585.53;6301699;22;20235;-82
2022/08/01 01:36:50;;;;;;;8.23;5.10;;;;;;;18.53;82.43;94581.81;6303832;22;20169;-83
2022/08/01 01:39:18;;;;;;;7.10;5.30;;;;;;;18.45;81.88;94575.25;6303521;22;20187;-82
2022/08/01 01:41:48;;;;;;;8.50;4.60;;;;;;;18.45;80.94;94577.09;6303749;22;20175;-82
2022/08/01 01:44:18;;;;;;;13.83;4.63;;;;;;;18.38;80.16;94566.88;6303722;22;20168;-83
2022/08/01 01:46:46;;;;;;;6.77;4.50;;;;;;;18.67;78.77;94569.69;6303350;22;20184;-82
2022/08/01 01:49:14;;;;;;;7.03;4.53;;;;;;;18.65;77.70;94571.78;6302323;22;20167;-82
2022/08/01 01:51:43;;;;;;;8.67;4.10;;;;;;;18.66;77.79;94560.19;6302246;22;20278;-82
2022/08/01 01:54:11;;;;;;;7.33;4.33;;;;;;;18.75;77.07;94568.31;6302713;22;20168;-82
2022/08/01 01:56:49;;;;;;;6.17;4.03;;;;;;;18.77;76.62;94574.88;6303853;22;20545;-82
2022/08/01 01:59:20;;;;;;;6.60;4.70;;;;;;;18.74;76.26;94566.72;6301688;22;20222;-82
2022/08/01 02:01:49;;;;;;;8.17;4.90;;;;;;;18.78;75.79;94567.78;6304061;22;20160;-82
2022/08/01 02:04:17;;;;;;;9.63;3.67;;;;;;;18.88;74.54;94565.09;6303484;22;20168;-82
2022/08/01 02:06:47;;;;;;;4.07;3.50;;;;;;;18.79;73.90;94567.50;6303265;22;20241;-82
2022/08/01 02:09:16;;;;;;;7.07;4.30;;;;;;;18.76;73.35;94568.03;6301388;22;20257;-80
2022/08/01 02:11:46;;;;;;;6.45;3.30;;;;;;;18.67;71.94;94548.63;6301825;22;20646;-80
2022/08/01 02:14:14;;;;;;;6.90;3.47;;;;;;;18.72;70.79;94556.50;6300681;22;20195;-80
2022/08/01 02:16:45;;;;;;;3.27;2.90;;;;;;;18.62;69.81;94546.78;6301502;22;20164;-81
2022/08/01 02:19:12;;;;;;;4.87;2.90;;;;;;;18.77;70.79;94556.47;6303703;22;20148;-86
2022/08/01 02:21:45;;;;;;;4.97;3.00;;;;;;;18.94;70.52;94554.25;6302758;22;20167;-86
2022/08/01 02:24:17;;;;;;;4.27;2.70;;;;;;;19.18;70.43;94557.03;6304152;22;20153;-86
2022/08/01 02:26:50;;;;;;;4.70;2.90;;;;;;;19.18;71.97;94551.75;6304247;22;20188;-84
2022/08/01 02:29:23;;;;;;;6.90;3.33;;;;;;;19.16;72.98;94549.38;6304447;22;20235;-85
2022/08/01 02:31:55;;;;;;;10.80;3.88;;;;;;;19.11;74.30;94556.53;6306520;22;20631;-84
2022/08/01 02:34:26;;;;;;;8.50;3.20;;;;;;;19.09;74.55;94558.66;6302726;22;20167;-85
2022/08/01 02:36:55;;;;;;;6.05;3.47;;;;;;;19.01;75.13;94561.88;6303251;22;20156;-85
2022/08/01 02:39:23;;;;;;;5.20;3.30;;;;;;;19.01;74.71;94559.22;6303755;22;20168;-84
2022/08/01 02:41:56;;;;;;;4.95;3.53;;;;;;;18.95;75.36;94565.59;6302505;22;20269;-85
2022/08/01 02:44:27;;;;;;;9.05;3.50;;;;;;;18.91;77.07;94561.91;6302175;22;20172;-85
2022/08/01 02:47:01;;;;;;;5.15;3.45;;;;;;;18.87;75.44;94555.63;6302489;22;20774;-85
2022/08/01 02:49:32;;;;;;;10.00;3.33;;;;;;;18.74;75.27;94546.47;6304233;22;20240;-84
2022/08/01 02:52:02;;;;;;;7.80;2.95;;;;;;;18.75;75.46;94552.53;6303033;22;20214;-84
2022/08/01 02:54:31;;;;;;;6.65;3.58;;;;;;;18.83;75.49;94554.59;6303336;22;20161;-86
2022/08/01 02:56:58;;;;;;;5.97;3.58;;;;;;;18.74;76.48;94548.31;6303166;22;20164;-82
2022/08/01 02:59:27;;;;;;;7.35;3.50;;;;;;;18.63;77.53;94552.84;6302249;22;20180;-76
2022/08/01 03:01:57;;;;;;;6.87;3.80;;;;;;;18.46;78.45;94552.34;6300504;22;20187;-75
2022/08/01 03:04:27;;;;;;;6.77;3.93;;;;;;;18.40;79.02;94556.84;6300249;22;20160;-75
2022/08/01 03:06:58;;;;;;;7.13;3.40;;;;;;;18.35;79.53;94548.97;6299142;22;20192;-75
2022/08/01 03:09:27;;;;;;;8.93;3.77;;;;;;;18.18;80.97;94552.97;6300770;22;20202;-75
2022/08/01 03:11:57;;;;;;;7.90;4.00;;;;;;;18.14;81.30;94550.88;6300217;22;20638;-75
2022/08/01 03:14:26;;;;;;;9.63;4.33;;;;;;;18.07;82.19;94547.72;6300207;22;20188;-75
2022/08/01 03:16:55;;;;;;;4.73;4.00;;;;;;;18.04;82.74;94553.50;6302317;22;20204;-75
2022/08/01 03:19:27;;;;;;;6.57;4.33;;;;;;;17.93;83.98;94559.06;6300853;22;20179;-75
2022/08/01 03:21:58;;;;;;;5.80;4.83;;;;;;;17.93;84.42;94545.91;6300909;22;20156;-75
2022/08/01 03:24:28;;;;;;;4.90;4.40;;;;;;;17.89;85.03;94553.53;6300891;22;20160;-76
2022/08/01 03:26:58;;;;;;;7.77;4.90;;;;;;;17.86;85.48;94554.09;6301195;22;20674;-75
2022/08/01 03:29:29;;;;;;;6.37;5.10;;;;;;;17.74;86.57;94550.16;6301501;22;20712;-75
2022/08/01 03:31:58;;;;;;;5.63;4.90;;;;;;;17.74;87.04;94558.03;6301303;22;20164;-75
2022/08/01 03:34:27;;;;;;;7.73;4.73;;;;;;;17.71;86.54;94553.31;6300849;22;20180;-74
2022/08/01 03:37:00;;;;;;;8.97;5.03;;;;;;;17.64;87.62;94556.19;6301790;22;20165;-74
2022/08/01 03:39:31;;;;;;;11.17;5.00;;;;;;;17.54;87.75;94554.38;6301158;22;20164;-74
2022/08/01 03:42:02;;;;;;;9.93;5.30;;;;;;;17.51;89.30;94559.31;6301753;22;20153;-74
2022/08/01 03:44:34;;;;;;;10.17;4.83;;;;;;;17.51;87.13;94551.44;6301210;22;20153;-74
2022/08/01 03:47:05;;;;;;;7.07;4.40;;;;;;;17.48;84.25;94555.38;6301205;22;20178;-74
2022/08/01 03:49:35;;;;;;;9.10;4.17;;;;;;;17.61;82.37;94548.81;6301602;22;20152;-73
2022/08/01 03:52:04;;;;;;;8.03;4.30;;;;;;;17.87;81.55;94553.00;6301673;22;20159;-74
2022/08/01 03:54:34;;;;;;;6.43;4.30;;;;;;;18.09;81.15;94558.00;6300483;22;20175;-74
2022/08/01 03:57:02;;;;;;;8.40;4.67;;;;;;;18.37;80.40;94557.38;6301374;22;20161;-74
2022/08/01 03:59:30;;;;;;;9.90;4.60;;;;;;;18.32;80.15;94549.50;6300111;22;20168;-74
2022/08/01 04:01:59;;;;;;;7.73;4.30;;;;;;;18.26;81.07;94558.47;6299570;22;20218;-74
2022/08/01 04:04:26;;;;;;;7.67;4.47;;;;;;;18.25;81.84;94556.09;6299758;22;20213;-75
2022/08/01 04:06:55;;;;;;;8.40;4.40;;;;;;;18.21;81.73;94560.34;6300243;22;20196;-76
2022/08/01 04:09:22;;;;;;;11.80;4.50;;;;;;;18.18;81.19;94560.88;6298309;22;20275;-75
2022/08/01 04:11:50;;;;;;;7.43;4.37;;;;;;;18.10;81.36;94560.34;6300098;22;20172;-76
2022/08/01 04:14:16;;;;;;;11.30;6.20;;;;;;;18.10;82.39;94565.59;6299620;22;20595;-76
2022/08/01 04:16:43;;;;;;;8.17;5.57;;;;;;;18.09;83.11;94561.38;6301488;22;20164;-75
2022/08/01 04:19:10;;;;;;;9.07;6.60;;;;;;;18.05;83.99;94563.00;6301617;22;20168;-75
2022/08/01 04:21:38;;;;;;;9.20;6.90;;;;;;;18.00;84.52;94563.00;6300003;22;20176;-75
2022/08/01 04:24:11;;;;;;;11.17;6.93;;;;;;;18.02;84.89;94563.50;6300477;22;20160;-75
2022/08/01 04:26:40;;;;;;;8.93;6.70;;;;;;;18.02;85.02;94570.63;6300252;22;20716;-75
2022/08/01 04:29:10;;;;;;;12.97;7.03;;;;;;;18.09;84.88;94571.91;6299084;22;20597;-76
2022/08/01 04:31:40;;;;;;;9.10;6.63;;;;;;;18.15;84.95;94575.34;6299695;22;20172;-76
2022/08/01 04:34:07;;;;;;;14.32;7.60;;;;;;;18.19;84.42;94562.41;6299564;22;20211;-75
2022/08/01 04:36:37;;;;;;;10.67;6.83;;;;;;;18.23;83.93;94564.25;6302087;22;20195;-76
2022/08/01 04:39:07;;;;;;;12.03;7.13;;;;;;;18.24;84.25;94563.19;6302729;22;20202;-76
2022/08/01 04:41:35;;;;;;;11.37;6.83;;;;;;;18.39;83.71;94580.78;6302413;22;20164;-75
2022/08/01 04:44:03;;;;;;;10.40;6.83;;;;;;;18.55;83.03;94574.47;6302462;22;20164;-74
2022/08/01 04:46:30;;;;;;;15.47;8.50;;;;;;;18.64;83.49;94580.75;6301543;22;20253;-76
2022/08/01 04:48:57;;;;;;;28.63;8.52;;;;;;;18.61;83.71;94581.28;6302352;22;20562;-76
2022/08/01 04:51:24;;;;;;;12.43;8.73;;;;;;;18.57;83.47;94582.88;6301407;22;20199;-77
2022/08/01 04:53:51;;;;;;;14.53;8.87;;;;;;;18.43;85.27;94577.38;6302085;22;20179;-76
2022/08/01 04:56:21;;;;;;;19.47;8.93;;;;;;;18.45;85.90;94580.50;6301904;22;20160;-76
2022/08/01 04:59:39;;;;;;;16.27;9.35;;;;;;;18.49;84.91;94575.53;6301402;22;20171;-75
2022/08/01 05:01:35;;;;;;;18.27;8.93;;;;;;;18.53;84.72;94576.56;6302263;22;20175;-76
2022/08/01 05:04:02;;;;;;;16.88;8.35;;;;;;;18.62;84.10;94580.22;6303131;22;20243;-76
2022/08/01 05:06:29;;;;;;;15.87;8.70;;;;;;;18.72;82.91;94571.50;6300598;22;20192;-75
2022/08/01 05:08:56;;;;;;;16.13;8.20;;;;;;;18.89;82.09;94570.09;6301929;22;20200;-77
2022/08/01 05:11:24;;;;;;;13.70;7.82;;;;;;;19.01;81.26;94560.03;6295042;22;21005;-76
2022/08/01 05:13:52;;;;;;;14.13;7.90;;;;;;;19.13;79.92;94573.63;6237959;22;20709;-76
2022/08/01 05:16:19;;;;;;;17.55;7.53;;;;;;;19.20;80.22;94573.34;6295538;22;20233;-76
2022/08/01 05:18:46;;;;;;;16.80;7.35;;;;;;;19.28;79.13;94576.19;6297295;22;20510;-76
2022/08/01 05:21:13;;;;;;;11.27;7.18;;;;;;;19.29;80.14;94574.34;6297082;22;20247;-74
2022/08/01 05:23:39;;;;;;;14.80;7.22;;;;;;;19.36;79.49;94579.31;6297918;22;20165;-75
2022/08/01 05:26:06;;;;;;;13.30;7.00;;;;;;;19.42;79.04;94576.41;6296774;22;20192;-76
2022/08/01 05:28:35;;;;;;;8.27;6.68;;;;;;;19.48;77.90;94571.88;6298176;22;20177;-75
2022/08/01 05:31:01;;;;;;;9.73;6.60;;;;;;;19.53;78.23;94567.34;6298378;22;20168;-75
2022/08/01 05:33:28;;;;;;;9.65;6.65;;;;;;;19.63;77.25;94566.47;6297935;22;20202;-76
2022/08/01 05:35:55;;;;;;;13.55;7.18;;;;;;;19.71;76.65;94565.91;6298267;22;20225;-74
2022/08/01 05:38:22;;;;;;;13.05;6.18;;;;;;;19.76;76.40;94558.72;6298136;22;20176;-75
2022/08/01 05:40:49;;;;;;;11.30;6.20;;;;;;;19.81;76.51;94566.59;6297761;22;20187;-75
2022/08/01 05:43:16;;;;;;;13.68;6.07;;;;;;;19.92;76.32;94577.03;6297243;22;20165;-75
2022/08/01 05:45:44;;;;;;;10.07;5.93;;;;;;;20.11;75.13;94573.44;6297545;22;20168;-75
2022/08/01 05:48:11;;;;;;;12.70;6.68;;;;;;;20.32;74.86;94584.59;6298310;22;20238;-78
2022/08/01 05:50:37;;;;;;;10.80;5.88;;;;;;;20.44;73.46;94574.44;6299769;22;20172;-79
2022/08/01 05:53:04;;;;;;;7.47;4.97;;;;;;;20.42;71.18;94571.31;6298561;22;20646;-77
2022/08/01 05:55:31;;;;;;;6.47;4.43;;;;;;;20.58;69.03;94562.13;6299377;22;20164;-74
2022/08/01 05:57:58;;;;;;;11.85;4.40;;;;;;;20.93;67.55;94568.84;6299353;22;20168;-77
2022/08/01 06:00:25;;;;;;;4.35;3.78;;;;;;;21.09;65.81;94569.47;6298630;22;20172;-75
2022/08/01 06:02:53;;;;;;;6.05;4.13;;;;;;;21.19;65.92;94567.47;6297695;22;20169;-78
2022/08/01 06:05:20;;;;;;;8.35;4.25;;;;;;;21.18;66.53;94573.81;6298244;22;21031;-76
2022/08/01 06:07:47;;;;;;;9.07;4.00;;;;;;;21.24;64.85;94579.84;6297584;22;20920;-76
2022/08/01 06:10:13;;;;;;;7.10;3.78;;;;;;;21.22;61.88;94581.97;6296476;22;20163;-77
2022/08/01 06:12:40;;;;;;;4.03;3.28;;;;;;;21.20;61.38;94576.97;6296474;22;20239;-77
2022/08/01 06:15:08;;;;;;;5.68;3.38;;;;;;;21.22;59.93;94574.03;6295563;22;20175;-78
2022/08/01 06:17:35;;;;;;;9.82;2.80;;;;;;;21.26;59.46;94577.69;6295880;22;20164;-79
2022/08/01 06:20:05;;;;;;;6.50;3.47;;;;;;;21.13;59.85;94571.25;6298108;22;20168;-78
2022/08/01 06:22:32;;;;;;;6.07;2.83;;;;;;;21.12;60.19;94580.25;6297758;22;20160;-78
2022/08/01 06:24:59;;;;;;;5.95;3.28;;;;;;;21.15;59.81;94581.56;6296770;22;20635;-78
2022/08/01 06:27:26;;;;;;;4.78;3.00;;;;;;;21.14;59.75;94586.03;6297273;22;20219;-79
2022/08/01 06:29:53;;;;;;;3.60;3.00;;;;;;;21.13;59.34;94579.19;6297611;22;20675;-79
2022/08/01 06:32:20;;;;;;;4.13;2.95;;;;;;;21.17;60.48;94572.25;6297653;22;20834;-78
2022/08/01 06:34:46;;;;;;;8.00;3.10;;;;;;;21.34;59.54;94572.53;6297336;22;20164;-79
2022/08/01 06:37:15;;;;;;;5.20;3.42;;;;;;;21.44;59.62;94575.03;6296854;22;20160;-77
2022/08/01 06:39:42;;;;;;;4.57;3.20;;;;;;;21.40;59.92;94581.97;6296956;22;20172;-77
2022/08/01 06:42:10;;;;;;;5.70;3.60;;;;;;;21.41;58.93;94575.59;6298096;22;20195;-77
2022/08/01 06:44:36;;;;;;;7.68;3.13;;;;;;;21.36;59.27;94573.03;6298375;22;20225;-77
2022/08/01 06:47:03;;;;;;;7.53;3.47;;;;;;;21.24;59.83;94571.91;6298183;22;20193;-78
2022/08/01 06:49:30;;;;;;;5.60;3.10;;;;;;;21.24;59.48;94570.03;6299107;22;20164;-78
2022/08/01 06:51:57;;;;;;;4.47;2.88;;;;;;;21.20;59.96;94563.75;6297930;22;20164;-77
2022/08/01 06:54:25;;;;;;;5.70;3.35;;;;;;;21.35;62.53;94566.19;6297925;22;20168;-77
2022/08/01 06:56:52;;;;;;;5.13;3.25;;;;;;;21.50;61.09;94565.94;6296948;22;20168;-78
2022/08/01 06:59:19;;;;;;;4.65;3.70;;;;;;;21.57;60.52;94552.34;6296816;22;20175;-76
2022/08/01 07:01:46;;;;;;;8.05;3.17;;;;;;;21.76;61.09;94547.81;6298506;22;20191;-80
2022/08/01 07:04:12;;;;;;;6.32;3.42;;;;;;;21.94;60.57;94548.88;6298893;22;20164;-79
2022/08/01 07:06:39;;;;;;;5.70;3.60;;;;;;;22.02;60.86;94545.53;6298011;22;20188;-83
2022/08/01 07:09:10;;;;;;;4.25;3.60;;;;;;;21.98;60.01;94547.22;6297383;22;20207;-78
2022/08/01 07:11:38;;;;;;;5.20;3.38;;;;;;;21.96;60.39;94546.72;6298353;22;20167;-76
2022/08/01 07:14:08;;;;;;;10.43;3.78;;;;;;;21.98;61.06;94557.81;6297979;22;20176;-79
2022/08/01 07:16:35;;;;;;;5.53;3.40;;;;;;;21.92;60.42;94577.50;6299271;22;20635;-80
2022/08/01 07:19:02;;;;;;;6.13;3.47;;;;;;;21.89;60.22;94557.69;6297458;22;20172;-77
2022/08/01 07:21:38;;;;;;;5.22;3.60;;;;;;;21.93;63.24;94549.97;6298927;22;20687;-79
2022/08/01 07:24:09;;;;;;;4.53;3.42;;;;;;;22.12;61.07;94555.19;6297237;22;20156;-79
2022/08/01 07:26:36;;;;;;;4.68;3.33;;;;;;;22.23;62.03;94559.22;6297638;22;20156;-80
2022/08/01 07:29:06;;;;;;;4.57;3.58;;;;;;;22.30;60.09;94541.88;6297581;22;20191;-76
2022/08/01 07:31:33;;;;;;;6.28;3.55;;;;;;;22.54;60.72;94566.28;6251032;22;20156;-77
2022/08/01 07:34:00;;;;;;;3.90;3.30;;;;;;;22.79;59.97;94565.06;6289712;22;20168;-77
2022/08/01 07:36:27;;;;;;;6.63;3.25;;;;;;;23.12;58.53;94563.81;6295966;22;20183;-78
2022/08/01 07:38:54;;;;;;;5.57;3.20;;;;;;;23.27;56.74;94560.03;6297850;22;20675;-77
2022/08/01 07:41:21;;;;;;;7.60;3.40;;;;;;;23.23;56.18;94559.09;6297256;22;20168;-78
2022/08/01 07:43:48;;;;;;;7.72;3.00;;;;;;;23.11;56.74;94562.25;6297540;22;20495;-79
2022/08/01 07:46:17;;;;;;;5.05;2.85;;;;;;;23.06;57.69;94559.69;6296710;22;20576;-81
2022/08/01 07:48:44;;;;;;;3.78;3.42;;;;;;;23.05;58.11;94563.44;6297742;22;20216;-77
2022/08/01 07:51:11;;;;;;;4.88;3.13;;;;;;;22.98;58.09;94563.06;6297595;22;20191;-78
2022/08/01 07:53:38;;;;;;;3.42;3.13;;;;;;;23.10;60.03;94559.88;6297203;22;20693;-78
2022/08/01 07:56:06;;;;;;;6.40;3.47;;;;;;;23.39;57.39;94578.13;6298842;22;20311;-78
2022/08/01 07:58:32;;;;;;;5.45;3.67;;;;;;;23.52;56.86;94566.69;6297208;22;20167;-78
2022/08/01 08:00:59;;;;;;;5.13;3.42;;;;;;;23.57;56.53;94579.84;6297062;22;20172;-80
2022/08/01 08:03:28;;;;;;;6.80;3.70;;;;;;;23.27;57.08;94570.66;6296057;22;20179;-79
2022/08/01 08:05:55;;;;;;;4.35;3.55;;;;;;;23.11;57.54;94561.47;6298265;22;20168;-79
2022/08/01 08:08:22;;;;;;;10.27;4.40;;;;;;;23.15;59.06;94570.38;6297786;22;20215;-79
2022/08/01 08:10:49;;;;;;;6.93;4.20;;;;;;;23.26;57.66;94566.41;6300077;22;20180;-79
2022/08/01 08:13:16;;;;;;;8.68;4.00;;;;;;;23.33;59.39;94560.72;6299968;22;20161;-79
2022/08/01 08:15:43;;;;;;;5.13;3.25;;;;;;;23.53;57.48;94558.41;6298837;22;20170;-79
2022/08/01 08:18:10;;;;;;;3.65;3.35;;;;;;;23.46;54.63;94562.59;6299893;22;20164;-79
2022/08/01 08:20:38;;;;;;;7.65;3.22;;;;;;;23.07;55.86;94547.22;6299228;22;20488;-79
2022/08/01 08:24:19;;;;;;;5.32;3.42;;;;;;;22.90;57.17;94557.66;6301743;22;20156;-80
2022/08/01 08:25:52;;;;;;;5.60;3.88;;;;;;;22.80;57.41;94561.31;6300744;22;20172;-80
2022/08/01 08:28:19;;;;;;;5.32;3.35;;;;;;;22.77;58.09;94553.94;6300575;22;20191;-80
2022/08/01 08:30:46;;;;;;;4.93;3.50;;;;;;;22.69;57.51;94551.19;6298955;22;20190;-79
2022/08/01 08:33:12;;;;;;;6.70;3.70;;;;;;;22.66;57.84;94549.13;6298852;22;20221;-79
2022/08/01 08:35:41;;;;;;;6.50;3.28;;;;;;;22.72;58.57;94555.91;6299388;22;20168;-78
2022/08/01 08:38:08;;;;;;;3.90;3.50;;;;;;;22.82;57.49;94548.56;6299931;22;20171;-78
2022/08/01 08:40:37;;;;;;;4.65;3.40;;;;;;;22.98;56.69;94554.31;6299913;22;20631;-78
2022/08/01 08:43:05;;;;;;;7.78;3.08;;;;;;;23.23;55.70;94564.41;6300998;22;20168;-78
2022/08/01 08:45:33;;;;;;;5.97;2.95;;;;;;;23.26;57.75;94555.81;6299869;22;20168;-77
2022/08/01 08:48:00;;;;;;;4.55;3.20;;;;;;;23.21;56.58;94552.50;6301459;22;20199;-79
2022/08/01 08:50:27;;;;;;;6.15;3.55;;;;;;;23.20;54.64;94549.06;6300109;22;20255;-77
2022/08/01 08:52:57;;;;;;;4.63;2.90;;;;;;;23.14;53.90;94553.69;6299885;22;20172;-78
2022/08/01 08:55:25;;;;;;;5.18;3.10;;;;;;;23.07;53.60;94550.66;6300504;22;20568;-78
2022/08/01 08:57:53;;;;;;;5.85;3.20;;;;;;;23.10;54.08;94549.28;6301143;22;20253;-79
2022/08/01 09:00:21;;;;;;;5.78;3.30;;;;;;;23.33;54.79;94548.25;6298350;22;20168;-78
2022/08/01 09:02:49;;;;;;;6.68;3.67;;;;;;;23.57;53.71;94545.34;6300128;22;20279;-78
2022/08/01 09:05:18;;;;;;;6.60;3.33;;;;;;;23.79;52.46;94552.50;6298905;22;20168;-78
2022/08/01 09:07:45;;;;;;;5.30;2.97;;;;;;;23.60;52.65;94542.88;6299610;22;20302;-77
2022/08/01 09:10:13;;;;;;;4.50;3.20;;;;;;;23.70;52.84;94550.56;6299638;22;20168;-77
2022/08/01 09:12:41;;;;;;;6.80;3.70;;;;;;;23.71;53.88;94540.75;6299761;22;20168;-78
2022/08/01 09:15:09;;;;;;;7.97;3.40;;;;;;;23.95;53.78;94538.56;6299706;22;20695;-76
2022/08/01 09:17:44;;;;;;;7.28;3.30;;;;;;;23.98;52.03;94532.63;6300303;22;20175;-76
2022/08/01 09:20:23;;;;;;;7.00;3.03;;;;;;;24.02;51.75;94528.28;6300230;22;20156;-75
2022/08/01 09:22:50;;;;;;;2.80;2.60;;;;;;;24.23;50.52;94525.91;6299885;22;20156;-75
2022/08/01 09:25:18;;;;;;;4.55;2.80;;;;;;;24.42;49.84;94517.69;6300552;22;20218;-79
2022/08/01 09:27:45;;;;;;;3.28;2.60;;;;;;;24.45;49.13;94525.84;6300725;22;20195;-77
2022/08/01 09:30:14;;;;;;;3.10;2.70;;;;;;;24.51;50.50;94529.13;6299455;22;20168;-77
2022/08/01 09:32:58;;;;;;;5.10;2.95;;;;;;;24.52;50.95;94520.88;6298730;22;20165;-77
2022/08/01 09:35:26;;;;;;;6.57;2.70;;;;;;;24.44;50.52;94526.16;6298784;22;20167;-77
2022/08/01 09:38:12;;;;;;;4.78;2.97;;;;;;;24.46;50.29;94526.63;6300560;22;20226;-78
2022/08/01 09:40:54;;;;;;;8.52;3.33;;;;;;;24.61;51.12;94511.06;6299773;22;20167;-79
2022/08/01 09:43:22;;;;;;;6.32;3.30;;;;;;;24.72;50.32;94527.50;6300103;22;20187;-75
2022/08/01 09:45:53;;;;;;;3.88;3.05;;;;;;;24.81;51.20;94525.66;6298534;22;20175;-74
2022/08/01 09:48:21;;;;;;;5.13;3.33;;;;;;;24.92;51.29;94540.22;6298742;22;20199;-74
2022/08/01 09:50:49;;;;;;;11.57;3.47;;;;;;;24.92;51.62;94534.13;6299586;22;20653;-75
2022/08/01 09:53:18;;;;;;;3.75;3.20;;;;;;;24.95;51.34;94533.50;6299272;22;20168;-74
2022/08/01 09:55:45;;;;;;;3.30;3.00;;;;;;;24.85;49.76;94537.22;6299533;22;20165;-74
2022/08/01 09:58:13;;;;;;;6.82;3.28;;;;;;;25.02;49.87;94523.97;6295537;22;20176;-75
2022/08/01 10:00:40;;;;;;;4.35;3.63;;;;;;;25.17;49.67;94528.06;6300141;22;20172;-77
2022/08/01 10:03:21;;;;;;;3.90;3.33;;;;;;;25.11;49.84;94523.97;6299425;22;20168;-77
2022/08/01 10:05:48;;;;;;;4.18;3.30;;;;;;;24.96;49.85;94516.47;6299673;22;20221;-77
2022/08/01 10:08:16;;;;;;;3.70;3.13;;;;;;;25.14;50.10;94529.47;6299379;22;20200;-76
2022/08/01 10:10:44;;;;;;;5.25;3.40;;;;;;;25.43;49.42;94528.84;6299194;22;20164;-76
2022/08/01 10:13:13;;;;;;;6.18;3.53;;;;;;;25.49;48.66;94529.50;6299816;22;20199;-77
2022/08/01 10:15:41;;;;;;;4.85;3.28;;;;;;;25.68;47.33;94540.63;6299074;22;20168;-77
2022/08/01 10:18:10;;;;;;;7.35;3.13;;;;;;;25.63;47.24;94536.22;6298467;22;20160;-77
2022/08/01 10:20:37;;;;;;;6.28;4.65;;;;;;;25.81;47.36;94547.63;6299316;22;20164;-77
2022/08/01 10:23:05;;;;;;;33.38;15.35;;;;;;;25.72;48.29;94525.56;6300518;22;20175;-76
2022/08/01 10:25:37;;;;;;;11.85;5.60;;;;;;;25.92;48.51;94514.25;6299576;22;20498;-82
2022/08/01 10:28:11;;;;;;;6.75;3.95;;;;;;;26.14;48.07;94513.25;6299885;22;20732;-72
2022/08/01 10:30:42;;;;;;;5.45;3.85;;;;;;;26.32;48.58;94522.78;6298237;22;20167;-73
2022/08/01 10:33:09;;;;;;;3.97;3.38;;;;;;;26.46;48.08;94510.03;6301098;22;20160;-79
2022/08/01 10:35:36;;;;;;;3.38;2.90;;;;;;;26.51;48.02;94507.19;6301589;22;20507;-78
2022/08/01 10:38:04;;;;;;;3.92;3.17;;;;;;;26.33;48.17;94511.00;6301147;22;20627;-81
2022/08/01 10:40:31;;;;;;;5.95;3.17;;;;;;;26.38;47.35;94508.16;6300653;22;20229;-81
2022/08/01 10:42:59;;;;;;;6.03;2.90;;;;;;;26.47;47.25;94498.25;6301752;22;20169;-80
2022/08/01 10:45:26;;;;;;;5.80;2.95;;;;;;;26.77;46.15;94512.38;6297659;22;20556;-78
2022/08/01 10:48:01;;;;;;;4.53;2.95;;;;;;;26.86;45.22;94511.25;6298095;22;20196;-77
2022/08/01 10:50:32;;;;;;;2.92;2.50;;;;;;;26.76;45.12;94500.91;6298500;22;20156;-77
2022/08/01 10:53:08;;;;;;;2.50;2.30;;;;;;;26.72;45.59;94505.34;6299812;22;20484;-77
2022/08/01 10:55:50;;;;;;;5.20;2.78;;;;;;;26.56;46.33;94504.31;6299174;22;20557;-78
2022/08/01 10:58:22;;;;;;;8.15;3.00;;;;;;;26.93;47.41;94500.03;6299228;22;20155;-77
2022/08/01 11:00:49;;;;;;;5.80;2.95;;;;;;;27.24;45.37;94505.03;6298157;22;20188;-78
2022/08/01 11:03:35;;;;;;;6.35;2.92;;;;;;;27.26;46.41;94500.13;6298902;22;20183;-78
2022/08/01 11:06:04;;;;;;;3.22;2.80;;;;;;;27.61;46.22;94501.44;6299743;22;20157;-79
2022/08/01 11:08:32;;;;;;;3.40;2.65;;;;;;;28.01;45.53;94497.09;6298968;22;20208;-78
2022/08/01 11:11:02;;;;;;;3.10;2.80;;;;;;;27.80;44.13;94500.94;6300232;22;20514;-77
2022/08/01 11:14:07;;;;;;;5.93;2.83;;;;;;;27.36;43.74;94494.41;6299316;22;20213;-77
2022/08/01 11:16:35;;;;;;;3.72;3.15;;;;;;;27.49;44.86;94499.50;6299179;22;20164;-78
2022/08/01 11:19:05;;;;;;;4.90;2.97;;;;;;;27.37;45.25;94507.44;6300028;22;20509;-78
2022/08/01 11:22:03;;;;;;;4.00;2.83;;;;;;;27.03;45.04;94492.47;6299422;22;20160;-76
2022/08/01 11:24:59;;;;;;;6.32;3.10;;;;;;;27.09;45.85;94497.59;6299040;22;20257;-74
2022/08/01 11:27:28;;;;;;;3.63;2.65;;;;;;;26.89;45.18;94493.81;6298467;22;20217;-74
2022/08/01 11:30:22;;;;;;;12.55;3.20;;;;;;;26.83;46.09;94487.09;6298943;22;20249;-75
2022/08/01 11:32:51;;;;;;;3.95;2.78;;;;;;;26.94;46.07;94481.06;6286844;22;20175;-75
2022/08/01 11:35:20;;;;;;;9.45;3.20;;;;;;;26.95;46.06;94490.63;6297946;22;20172;-76
2022/08/01 11:37:47;;;;;;;3.67;2.95;;;;;;;26.82;45.94;94488.97;6298304;22;20226;-76
2022/08/01 11:40:19;;;;;;;12.85;2.97;;;;;;;26.93;45.27;94492.81;6297344;22;20627;-75
2022/08/01 11:42:46;;;;;;;4.60;2.83;;;;;;;27.23;46.20;94495.44;6298702;22;20248;-75